Main page
METAR-TAF:

METAR-TAF

Airports :

Waterford Airport

Waterford, Ireland

latitude: 52-11-14N, longitude: 7-05-13W, elevation: 36 m

Current weather observation

The report was made 2 hours and 23 minutes ago, at 20:30 UTC
Wind 14 kt from the East/Southeast
Temperature 8°C
Humidity 93%
Pressure 993 hPa
Visibility 10 km or more
Broken clouds at a height of 1000 ft

METAR: EIWF 212030Z 12014KT 9999 BKN010 08/07 Q0993 R21/2/////

Time: 22:53 (22:53 UTC)

Forecast

The report was made 2 hours and 53 minutes ago, at 20:00 UTC
Forecast valid from 21 at 21 UTC to 22 at 06 UTC
Wind 14 kt from the East/Southeast
Visibility: 9000 m
Scattered clouds at a height of 800 ft
Broken clouds at a height of 1200 ft
light drizzle
Temporary
from 21 at 21 UTC to 22 at 06 UTC
Visibility: 1200 m
Broken clouds at a height of 400 ft
rain

TAF: EIWF 212000Z 2121/2206 12014KT 9000 -DZ SCT008 BKN012 TEMPO 2121/2206 1200 RA BKN004

Weather observations and forecasts of more than 4000 airports (METAR and TAF reports).

The available stations are represented by yellow and red dots on the map.

Hover mouse over dot to see the name of the station.

Then click to see weather observations and forecasts.

To change the map : click on the green buttons with a black cross to zoom in, on the green button with a dash to zoom out, or on the green arrows for adjacent maps.


METAR-TAF: